Terminal Aerodrome Forecast
Issued by NWS Jackson, MS

Home | Current Version | Previous Version | Text Only | Print | Product List | Glossary On
Versions: 1 2 3 4 5 6 7 8 9 10 11 12 13 14
000
FTUS44 KJAN 232300
TAFMEI
TAF
KMEI 232320Z 2400/2424 VRB03KT P6SM SKC
     FM240200 00000KT 4SM BR SKC
     FM241000 00000KT 2SM BR SCT250
     FM241500 19009KT P6SM SCT050 BKN250=

USA.gov is the U.S. government's official web portal to all federal, state and local government web resources and services.